createdAt,value
2018-06-22T00:00:31.830Z,12.76
2018-06-22T00:03:01.517Z,12.71
2018-06-22T00:05:31.186Z,12.68
2018-06-22T00:08:00.647Z,12.59
2018-06-22T00:10:30.048Z,12.66
2018-06-22T00:12:59.718Z,12.47
2018-06-22T00:15:29.422Z,12.27
2018-06-22T00:17:58.813Z,12.16
2018-06-22T00:20:28.638Z,11.96
2018-06-22T00:22:58.059Z,11.80
2018-06-22T00:25:27.823Z,11.74
2018-06-22T00:27:57.480Z,11.85
2018-06-22T00:30:27.148Z,11.74
2018-06-22T00:32:56.854Z,11.86
2018-06-22T00:35:26.539Z,11.79
2018-06-22T00:37:56.198Z,11.97
2018-06-22T00:40:25.602Z,11.93
2018-06-22T00:42:55.269Z,11.90
2018-06-22T00:45:25.027Z,11.96
2018-06-22T00:47:54.689Z,11.87
2018-06-22T00:50:24.376Z,11.83
2018-06-22T00:52:54.406Z,11.89
2018-06-22T00:55:24.063Z,11.87
2018-06-22T00:57:53.767Z,11.86
2018-06-22T01:00:23.469Z,11.75
2018-06-22T01:02:52.927Z,11.62
2018-06-22T01:05:22.614Z,11.50
2018-06-22T01:07:52.278Z,11.35
2018-06-22T01:10:21.966Z,11.26
2018-06-22T01:12:51.638Z,11.25
2018-06-22T01:15:21.026Z,11.10
2018-06-22T01:17:50.707Z,10.96
2018-06-22T01:20:20.383Z,10.91
2018-06-22T01:22:50.122Z,10.87
2018-06-22T01:25:19.800Z,10.94
2018-06-22T01:27:49.478Z,11.05
2018-06-22T01:30:19.153Z,11.06
2018-06-22T01:32:48.835Z,11.14
2018-06-22T01:35:18.258Z,11.21
2018-06-22T01:37:48.006Z,11.17
2018-06-22T01:40:17.713Z,11.12
2018-06-22T01:42:47.366Z,10.96
2018-06-22T01:45:17.050Z,10.88
2018-06-22T01:47:46.750Z,10.80
2018-06-22T01:50:16.478Z,10.57
2018-06-22T01:52:46.131Z,10.43
2018-06-22T01:55:18.755Z,10.40
2018-06-22T01:57:48.450Z,10.32
2018-06-22T02:00:18.155Z,10.21
2018-06-22T02:02:47.837Z,10.13
2018-06-22T02:05:17.520Z,10.08
2018-06-22T02:07:47.205Z,10.12
2018-06-22T02:10:16.871Z,10.05
2018-06-22T02:12:46.606Z,10.09
2018-06-22T02:15:16.279Z,10.16
2018-06-22T02:17:45.982Z,10.08
2018-06-22T02:20:15.690Z,10.09
2018-06-22T02:22:45.374Z,9.95
2018-06-22T02:25:15.097Z,9.84
2018-06-22T02:27:44.814Z,9.70
2018-06-22T02:30:14.510Z,9.62
2018-06-22T02:32:44.195Z,9.58
2018-06-22T02:35:13.892Z,9.65
2018-06-22T02:37:43.607Z,9.62
2018-06-22T02:40:13.284Z,9.59
2018-06-22T02:42:42.682Z,9.60
2018-06-22T02:45:12.344Z,9.62
2018-06-22T02:47:42.006Z,9.58
2018-06-22T02:50:11.714Z,9.53
2018-06-22T02:52:41.176Z,9.47
2018-06-22T02:55:10.853Z,9.51
2018-06-22T02:57:40.515Z,9.54
2018-06-22T03:00:10.182Z,9.62
2018-06-22T03:02:40.137Z,9.67
2018-06-22T03:05:09.796Z,9.74
2018-06-22T03:07:39.523Z,9.87
2018-06-22T03:10:08.911Z,9.92
2018-06-22T03:12:38.612Z,9.89
2018-06-22T03:15:08.327Z,9.82
2018-06-22T03:17:37.711Z,9.87
2018-06-22T03:20:07.116Z,9.84
2018-06-22T03:22:36.801Z,9.82
2018-06-22T03:25:06.506Z,9.88
2018-06-22T03:27:36.238Z,9.86
2018-06-22T03:30:05.665Z,9.86
2018-06-22T03:32:35.323Z,9.96
2018-06-22T03:35:04.747Z,10.02
2018-06-22T03:37:34.438Z,10.04
2018-06-22T03:40:04.452Z,10.14
2018-06-22T03:42:33.886Z,10.17
2018-06-22T03:45:03.620Z,10.15
2018-06-22T03:47:33.290Z,10.13
2018-06-22T03:50:02.988Z,10.18
2018-06-22T03:52:32.718Z,10.12
2018-06-22T03:55:02.395Z,10.10
2018-06-22T03:57:32.246Z,10.17
2018-06-22T04:00:01.923Z,10.35
2018-06-22T04:02:31.342Z,10.59
2018-06-22T04:05:01.155Z,10.93
2018-06-22T04:07:30.549Z,11.20
2018-06-22T04:10:00.015Z,11.50
2018-06-22T04:12:29.694Z,11.81
2018-06-22T04:14:59.379Z,11.99
2018-06-22T04:17:29.082Z,12.19
2018-06-22T04:19:58.751Z,12.45
2018-06-22T04:22:28.485Z,12.67
2018-06-22T04:24:57.866Z,12.89
2018-06-22T04:27:27.278Z,13.10
2018-06-22T04:29:56.686Z,13.33
2018-06-22T04:32:26.080Z,13.53
2018-06-22T04:34:55.783Z,13.79
2018-06-22T04:37:25.439Z,13.99
2018-06-22T04:39:54.831Z,14.25
2018-06-22T04:42:24.502Z,14.51
2018-06-22T04:44:54.234Z,14.76
2018-06-22T04:47:24.050Z,14.92
2018-06-22T04:49:53.769Z,15.10
2018-06-22T04:52:23.450Z,15.25
2018-06-22T04:54:53.193Z,15.42
2018-06-22T04:57:22.855Z,15.70
2018-06-22T04:59:52.564Z,16.20
2018-06-22T05:02:22.283Z,16.98
2018-06-22T05:04:52.148Z,17.76
2018-06-22T05:07:21.838Z,18.81
2018-06-22T05:09:51.537Z,20.37
2018-06-22T05:12:20.999Z,21.76
2018-06-22T05:14:50.718Z,22.66
2018-06-22T05:17:20.423Z,23.59
2018-06-22T05:19:50.135Z,24.42
2018-06-22T05:22:20.374Z,25.18
2018-06-22T05:24:50.470Z,25.53
2018-06-22T05:27:20.999Z,25.22
2018-06-22T05:29:51.301Z,25.07
2018-06-22T05:32:21.540Z,24.98
2018-06-22T05:34:51.809Z,25.02
2018-06-22T05:37:22.055Z,25.52
2018-06-22T05:39:52.320Z,26.48
2018-06-22T05:42:22.597Z,27.48
2018-06-22T05:44:52.854Z,28.66
2018-06-22T05:47:23.182Z,30.02
2018-06-22T05:49:53.439Z,31.16
2018-06-22T05:52:23.424Z,31.92
2018-06-22T05:54:53.693Z,32.48
2018-06-22T05:57:23.946Z,33.56
2018-06-22T05:59:54.227Z,34.61
2018-06-22T06:02:24.493Z,35.27
2018-06-22T06:04:54.755Z,35.60
2018-06-22T06:07:24.978Z,36.09
2018-06-22T06:09:55.416Z,36.17
2018-06-22T06:12:25.145Z,36.12
2018-06-22T06:14:55.438Z,36.91
2018-06-22T06:17:25.456Z,37.62
2018-06-22T06:19:55.993Z,38.22
2018-06-22T06:22:26.207Z,38.03
2018-06-22T06:24:56.184Z,38.51
2018-06-22T06:27:25.878Z,38.86
2018-06-22T06:29:55.844Z,38.93
2018-06-22T06:32:25.828Z,38.70
2018-06-22T06:34:55.834Z,38.91
2018-06-22T06:37:25.796Z,39.09
2018-06-22T06:39:55.472Z,38.89
2018-06-22T06:42:25.514Z,38.11
2018-06-22T06:44:55.674Z,37.63
2018-06-22T06:47:25.946Z,37.47
2018-06-22T06:49:55.923Z,37.64
2018-06-22T06:52:25.917Z,38.60
2018-06-22T06:54:55.867Z,39.11
2018-06-22T06:57:25.802Z,38.52
2018-06-22T06:59:55.891Z,38.73
2018-06-22T07:02:25.918Z,39.22
2018-06-22T07:04:56.122Z,39.17
2018-06-22T07:07:26.107Z,39.65
2018-06-22T07:09:56.089Z,39.76
2018-06-22T07:12:26.060Z,39.61
2018-06-22T07:14:55.763Z,39.05
2018-06-22T07:17:25.784Z,39.45
2018-06-22T07:19:55.733Z,39.97
2018-06-22T07:22:25.755Z,40.03
2018-06-22T07:24:55.733Z,39.97
2018-06-22T07:27:25.723Z,39.89
2018-06-22T07:29:55.716Z,38.00
2018-06-22T07:32:25.677Z,35.77
2018-06-22T07:34:55.969Z,34.07
2018-06-22T07:37:26.213Z,34.54
2018-06-22T07:39:57.829Z,35.93
2018-06-22T07:42:27.835Z,35.90
2018-06-22T07:44:57.544Z,35.71
2018-06-22T07:47:27.554Z,36.54
2018-06-22T07:49:57.805Z,36.08
2018-06-22T07:52:28.260Z,33.99
2018-06-22T07:54:58.567Z,31.61
2018-06-22T07:57:29.056Z,29.73
2018-06-22T07:59:59.443Z,29.23
2018-06-22T08:02:29.814Z,28.62
2018-06-22T08:05:00.134Z,29.75
2018-06-22T08:07:30.414Z,31.84
2018-06-22T08:10:00.674Z,34.00
2018-06-22T08:12:30.998Z,34.79
2018-06-22T08:15:01.322Z,33.70
2018-06-22T08:17:31.373Z,33.01
2018-06-22T08:20:01.548Z,33.52
2018-06-22T08:22:31.910Z,34.35
2018-06-22T08:25:02.262Z,34.80
2018-06-22T08:27:32.518Z,33.30
2018-06-22T08:30:02.824Z,32.54
2018-06-22T08:32:33.141Z,31.40
2018-06-22T08:35:03.445Z,30.01
2018-06-22T08:37:33.691Z,28.57
2018-06-22T08:40:03.986Z,27.09
2018-06-22T08:42:34.223Z,25.97
2018-06-22T08:45:04.326Z,25.76
2018-06-22T08:47:34.553Z,26.83
2018-06-22T08:50:04.828Z,27.16
2018-06-22T08:52:34.891Z,26.93
2018-06-22T08:55:05.487Z,27.07
2018-06-22T08:57:35.499Z,27.89
2018-06-22T09:00:05.899Z,28.40
2018-06-22T09:02:35.956Z,29.31
2018-06-22T09:05:06.222Z,29.67
2018-06-22T09:07:36.470Z,29.25
2018-06-22T09:10:06.762Z,28.44
2018-06-22T09:12:37.058Z,27.82
2018-06-22T09:15:07.511Z,26.90
2018-06-22T09:17:37.799Z,25.56
2018-06-22T09:20:08.078Z,24.70
2018-06-22T09:22:37.750Z,24.05
2018-06-22T09:25:07.759Z,23.46
2018-06-22T09:27:37.501Z,22.72
2018-06-22T09:30:06.923Z,22.25
2018-06-22T09:32:37.266Z,21.96
2018-06-22T09:35:08.258Z,21.85
2018-06-22T09:37:38.424Z,22.19
2018-06-22T09:40:08.230Z,22.93
2018-06-22T09:42:37.776Z,23.63
2018-06-22T09:45:07.687Z,23.93
2018-06-22T09:47:37.542Z,23.53
2018-06-22T09:50:06.982Z,22.83
2018-06-22T09:52:36.406Z,22.14
2018-06-22T09:55:06.370Z,21.54
2018-06-22T09:57:36.079Z,21.06
2018-06-22T10:00:05.931Z,20.58
2018-06-22T10:02:35.415Z,20.22
2018-06-22T10:05:05.162Z,20.04
2018-06-22T10:07:34.850Z,19.79
2018-06-22T10:10:04.564Z,19.74
2018-06-22T10:12:34.264Z,19.80
2018-06-22T10:15:04.020Z,19.95
2018-06-22T10:17:33.452Z,20.22
2018-06-22T10:20:03.166Z,20.60
2018-06-22T10:22:32.862Z,20.78
2018-06-22T10:25:02.586Z,20.70
2018-06-22T10:27:32.290Z,20.56
2018-06-22T10:30:01.979Z,20.26
2018-06-22T10:32:31.675Z,19.95
2018-06-22T10:35:01.350Z,19.60
2018-06-22T10:37:31.139Z,19.29
2018-06-22T10:40:00.983Z,19.15
2018-06-22T10:42:30.408Z,19.04
2018-06-22T10:44:59.830Z,19.16
2018-06-22T10:47:29.544Z,19.35
2018-06-22T10:49:59.262Z,19.64
2018-06-22T10:52:28.996Z,19.75
2018-06-22T10:54:58.731Z,19.91
2018-06-22T10:57:28.547Z,20.02
2018-06-22T10:59:58.558Z,20.00
2018-06-22T11:02:28.282Z,20.12
2018-06-22T11:04:58.028Z,20.33
2018-06-22T11:07:27.728Z,20.76
2018-06-22T11:09:57.415Z,21.32
2018-06-22T11:12:27.145Z,21.79
2018-06-22T11:14:56.830Z,22.12
2018-06-22T11:17:26.551Z,22.53
2018-06-22T11:19:56.292Z,23.05
2018-06-22T11:22:25.978Z,23.61
2018-06-22T11:24:55.731Z,23.68
2018-06-22T11:27:25.681Z,23.69
2018-06-22T11:29:55.614Z,23.73
2018-06-22T11:32:25.283Z,23.51
2018-06-22T11:34:55.008Z,23.30
2018-06-22T11:37:24.739Z,23.29
2018-06-22T11:39:54.438Z,23.30
2018-06-22T11:42:24.162Z,23.11
2018-06-22T11:44:54.238Z,22.72
2018-06-22T11:47:23.935Z,22.35
2018-06-22T11:49:53.614Z,22.13
2018-06-22T11:52:23.331Z,22.08
2018-06-22T11:54:53.454Z,22.18
2018-06-22T11:57:22.883Z,22.29
2018-06-22T11:59:52.310Z,22.40
2018-06-22T12:02:22.101Z,22.54
2018-06-22T12:04:52.934Z,22.67
2018-06-22T12:07:22.658Z,22.78
2018-06-22T12:09:52.360Z,22.81
2018-06-22T12:12:21.824Z,22.67
2018-06-22T12:14:51.535Z,22.59
2018-06-22T12:17:21.230Z,22.31
2018-06-22T12:19:50.964Z,21.97
2018-06-22T12:22:20.374Z,21.73
2018-06-22T12:24:50.250Z,21.43
2018-06-22T12:27:20.179Z,21.10
2018-06-22T12:29:50.614Z,20.77
2018-06-22T12:32:20.493Z,20.54
2018-06-22T12:34:50.299Z,20.46
2018-06-22T12:37:20.480Z,20.40
2018-06-22T12:39:50.346Z,20.40
2018-06-22T12:42:20.316Z,20.56
2018-06-22T12:44:50.098Z,20.81
2018-06-22T12:47:20.381Z,21.12
2018-06-22T12:49:50.144Z,21.51
2018-06-22T12:52:19.850Z,21.96
2018-06-22T12:54:49.635Z,22.40
2018-06-22T12:57:19.320Z,22.70
2018-06-22T12:59:49.058Z,22.79
2018-06-22T13:02:18.793Z,22.73
2018-06-22T13:04:48.765Z,22.68
2018-06-22T13:07:18.479Z,22.71
2018-06-22T13:09:48.184Z,22.95
2018-06-22T13:12:17.595Z,23.11
2018-06-22T13:14:47.310Z,22.86
2018-06-22T13:17:17.363Z,22.50
2018-06-22T13:19:47.085Z,22.35
2018-06-22T13:22:16.983Z,22.46
2018-06-22T13:24:46.679Z,22.77
2018-06-22T13:27:16.394Z,23.08
2018-06-22T13:29:46.094Z,23.19
2018-06-22T13:32:15.790Z,23.28
2018-06-22T13:34:45.483Z,23.22
2018-06-22T13:37:15.576Z,23.07
2018-06-22T13:39:45.310Z,23.10
2018-06-22T13:42:14.999Z,23.04
2018-06-22T13:44:45.142Z,23.00
2018-06-22T13:47:14.823Z,22.89
2018-06-22T13:49:44.543Z,22.75
2018-06-22T13:52:14.284Z,22.88
2018-06-22T13:54:44.047Z,23.05
2018-06-22T13:57:13.769Z,23.03
2018-06-22T13:59:43.691Z,23.12
2018-06-22T14:02:13.143Z,23.12
2018-06-22T14:04:47.977Z,22.98
2018-06-22T14:07:17.386Z,22.96
2018-06-22T14:09:47.062Z,22.80
2018-06-22T14:12:16.765Z,22.57
2018-06-22T14:14:46.761Z,22.27
2018-06-22T14:17:16.442Z,22.15
2018-06-22T14:19:46.159Z,22.12
2018-06-22T14:22:15.842Z,22.01
2018-06-22T14:24:45.231Z,22.07
2018-06-22T14:27:14.962Z,22.14
2018-06-22T14:29:44.672Z,22.28
2018-06-22T14:32:14.398Z,22.48
2018-06-22T14:34:44.087Z,22.67
2018-06-22T14:37:13.780Z,22.79
2018-06-22T14:39:43.538Z,22.65
2018-06-22T14:42:13.234Z,22.51
2018-06-22T14:44:42.934Z,22.29
2018-06-22T14:47:12.619Z,22.09
2018-06-22T14:49:42.307Z,21.79
2018-06-22T14:52:12.028Z,21.39
2018-06-22T14:54:46.831Z,21.13
2018-06-22T14:57:21.782Z,20.92
2018-06-22T14:59:56.738Z,20.74
2018-06-22T15:02:31.505Z,20.70
2018-06-22T15:05:06.422Z,20.57
2018-06-22T15:07:41.511Z,20.25
2018-06-22T15:10:11.421Z,20.04
2018-06-22T15:12:41.326Z,20.14
2018-06-22T15:15:11.222Z,20.32
2018-06-22T15:17:46.171Z,20.44
2018-06-22T15:20:16.074Z,20.63
2018-06-22T15:22:45.595Z,20.80
2018-06-22T15:25:16.127Z,20.87
2018-06-22T15:27:46.209Z,20.95
2018-06-22T15:30:16.785Z,20.98
2018-06-22T15:32:46.470Z,21.03
2018-06-22T15:35:21.327Z,21.01
2018-06-22T15:37:56.615Z,21.01
2018-06-22T15:40:31.419Z,20.83
2018-06-22T15:43:06.317Z,20.56
2018-06-22T15:45:41.116Z,20.33
2018-06-22T15:48:16.710Z,20.18
2018-06-22T15:50:51.735Z,20.10
2018-06-22T15:53:26.826Z,20.16
2018-06-22T15:56:02.062Z,20.16
2018-06-22T15:58:31.943Z,20.21
2018-06-22T16:01:01.870Z,20.28
2018-06-22T16:03:36.839Z,20.40
2018-06-22T16:06:07.286Z,20.58
2018-06-22T16:08:37.211Z,20.79
2018-06-22T16:11:07.609Z,20.92
2018-06-22T16:13:37.239Z,20.89
2018-06-22T16:16:12.210Z,20.88
2018-06-22T16:18:47.534Z,20.66
2018-06-22T16:21:22.467Z,20.34
2018-06-22T16:23:57.578Z,20.19
2018-06-22T16:26:32.663Z,20.01
2018-06-22T16:29:02.614Z,19.85
2018-06-22T16:31:32.896Z,19.62
2018-06-22T16:34:02.735Z,19.48
2018-06-22T16:36:32.615Z,19.27
2018-06-22T16:39:02.415Z,19.10
2018-06-22T16:41:32.147Z,18.91
2018-06-22T16:44:01.890Z,18.67
2018-06-22T16:46:31.625Z,18.54
2018-06-22T16:49:01.119Z,18.39
2018-06-22T16:51:31.578Z,18.25
2018-06-22T16:54:01.282Z,18.15
2018-06-22T16:56:31.087Z,18.04
2018-06-22T16:59:04.067Z,17.98
2018-06-22T17:01:34.783Z,17.92
2018-06-22T17:04:04.569Z,17.80
2018-06-22T17:06:39.412Z,17.78
2018-06-22T17:09:14.621Z,17.81
2018-06-22T17:11:49.470Z,17.73
2018-06-22T17:14:24.227Z,17.66
2018-06-22T17:16:59.179Z,17.55
2018-06-22T17:19:29.073Z,17.52
2018-06-22T17:21:58.890Z,17.56
2018-06-22T17:24:28.740Z,17.50
2018-06-22T17:26:58.811Z,17.38
2018-06-22T17:29:28.893Z,17.42
2018-06-22T17:31:58.635Z,17.46
2018-06-22T17:34:28.419Z,17.41
2018-06-22T17:36:58.137Z,17.41
2018-06-22T17:39:27.821Z,17.41
2018-06-22T17:41:57.514Z,17.42
2018-06-22T17:44:27.247Z,17.34
2018-06-22T17:46:57.102Z,17.27
2018-06-22T17:49:26.723Z,17.25
2018-06-22T17:51:56.531Z,17.20
2018-06-22T17:54:26.425Z,17.11
2018-06-22T17:56:56.283Z,17.05
2018-06-22T17:59:31.259Z,17.03
2018-06-22T18:02:06.243Z,16.88
2018-06-22T18:04:44.444Z,16.86
2018-06-22T18:07:20.175Z,16.90
2018-06-22T18:09:55.199Z,16.82
2018-06-22T18:12:31.248Z,16.76
2018-06-22T18:15:01.217Z,16.64
2018-06-22T18:17:31.163Z,16.55
2018-06-22T18:20:01.396Z,16.49
2018-06-22T18:22:31.251Z,16.30
2018-06-22T18:25:00.966Z,16.16
2018-06-22T18:27:30.647Z,16.03
2018-06-22T18:30:00.680Z,15.84
2018-06-22T18:32:30.351Z,15.67
2018-06-22T18:35:00.463Z,15.49
2018-06-22T18:37:30.198Z,15.38
2018-06-22T18:40:00.020Z,15.26
2018-06-22T18:42:29.704Z,15.23
2018-06-22T18:44:59.519Z,15.24
2018-06-22T18:47:29.622Z,15.20
2018-06-22T18:49:59.498Z,15.00
2018-06-22T18:52:34.761Z,14.85
2018-06-22T18:55:09.966Z,14.62
2018-06-22T18:57:44.966Z,14.62
2018-06-22T19:00:20.220Z,14.54
2018-06-22T19:02:55.490Z,14.45
2018-06-22T19:05:25.844Z,14.34
2018-06-22T19:07:55.978Z,14.38
2018-06-22T19:10:25.788Z,14.24
2018-06-22T19:12:55.649Z,14.13
2018-06-22T19:15:25.569Z,13.99
2018-06-22T19:17:55.590Z,13.76
2018-06-22T19:20:25.690Z,13.63
2018-06-22T19:22:55.458Z,13.52
2018-06-22T19:25:25.633Z,13.51
2018-06-22T19:27:55.685Z,13.30
2018-06-22T19:30:26.308Z,13.23
2018-06-22T19:32:56.219Z,13.24
2018-06-22T19:35:25.957Z,13.05
2018-06-22T19:37:55.667Z,12.87
2018-06-22T19:40:25.372Z,12.84
2018-06-22T19:42:55.134Z,12.80
2018-06-22T19:45:30.224Z,12.66
2018-06-22T19:49:07.268Z,12.48
2018-06-22T19:51:42.040Z,12.30
2018-06-22T19:54:11.798Z,12.20
2018-06-22T19:56:41.507Z,12.18
2018-06-22T19:59:11.360Z,12.15
2018-06-22T20:01:41.470Z,12.09
2018-06-22T20:04:11.534Z,12.02
2018-06-22T20:06:41.690Z,11.94
2018-06-22T20:09:11.791Z,11.86
2018-06-22T20:11:42.445Z,11.98
2018-06-22T20:14:12.299Z,12.03
2018-06-22T20:16:41.726Z,11.96
2018-06-22T20:19:11.910Z,11.91
2018-06-22T20:21:41.658Z,11.83
2018-06-22T20:24:11.411Z,11.85
2018-06-22T20:26:41.133Z,11.89
2018-06-22T20:29:10.852Z,11.70
2018-06-22T20:31:40.657Z,11.44
2018-06-22T20:34:15.733Z,11.25
2018-06-22T20:36:50.675Z,11.08
2018-06-22T20:39:25.496Z,11.03
2018-06-22T20:42:58.491Z,10.94
2018-06-22T20:45:33.463Z,10.88
2018-06-22T20:48:09.224Z,10.83
2018-06-22T20:50:39.096Z,10.80
2018-06-22T20:53:09.039Z,10.86
2018-06-22T20:55:39.407Z,10.89
2018-06-22T20:58:09.167Z,10.88
2018-06-22T21:00:39.309Z,10.76
2018-06-22T21:03:09.719Z,10.67
2018-06-22T21:05:39.535Z,10.65
2018-06-22T21:08:10.514Z,10.57
2018-06-22T21:10:40.491Z,10.51
2018-06-22T21:13:10.483Z,10.48
2018-06-22T21:15:40.387Z,10.63
2018-06-22T21:18:10.259Z,10.58
2018-06-22T21:20:44.173Z,10.46
2018-06-22T21:23:14.048Z,10.68
2018-06-22T21:25:43.973Z,10.63
2018-06-22T21:28:19.188Z,10.76
2018-06-22T21:30:54.330Z,10.71
2018-06-22T21:33:29.543Z,10.61
2018-06-22T21:36:04.619Z,10.58
2018-06-22T21:38:39.612Z,10.71
2018-06-22T21:41:09.471Z,10.64
2018-06-22T21:43:39.271Z,10.62
2018-06-22T21:46:08.943Z,10.57
2018-06-22T21:48:38.802Z,10.61
2018-06-22T21:51:08.642Z,10.67
2018-06-22T21:53:38.357Z,10.71
2018-06-22T21:56:08.235Z,10.76
2018-06-22T21:58:38.053Z,10.74
2018-06-22T22:01:09.452Z,10.74
2018-06-22T22:03:39.606Z,11.02
2018-06-22T22:06:09.519Z,11.29
2018-06-22T22:08:39.527Z,11.32
2018-06-22T22:11:10.794Z,11.41
2018-06-22T22:13:41.133Z,11.37
2018-06-22T22:16:10.721Z,11.49
2018-06-22T22:18:40.400Z,11.53
2018-06-22T22:21:10.136Z,11.47
2018-06-22T22:23:40.046Z,11.44
2018-06-22T22:26:10.195Z,11.57
2018-06-22T22:28:39.983Z,11.53
2018-06-22T22:31:09.802Z,11.64
2018-06-22T22:33:39.544Z,11.86
2018-06-22T22:36:09.254Z,11.98
2018-06-22T22:38:38.931Z,11.95
2018-06-22T22:41:09.090Z,11.93
2018-06-22T22:43:39.223Z,11.97
2018-06-22T22:46:08.842Z,11.95
2018-06-22T22:48:38.342Z,11.85
2018-06-22T22:51:08.363Z,11.93
2018-06-22T22:53:38.450Z,12.00
2018-06-22T22:56:08.578Z,11.95
2018-06-22T22:58:38.185Z,12.06
2018-06-22T23:01:07.884Z,11.96
2018-06-22T23:03:37.635Z,11.84
2018-06-22T23:06:07.530Z,11.81
2018-06-22T23:08:37.366Z,11.74
2018-06-22T23:11:07.202Z,11.72
2018-06-22T23:13:36.898Z,11.75
2018-06-22T23:16:06.946Z,11.82
2018-06-22T23:18:36.742Z,11.80
2018-06-22T23:21:06.558Z,11.77
2018-06-22T23:23:37.787Z,11.80
2018-06-22T23:26:08.170Z,11.86
2018-06-22T23:28:38.366Z,11.98
2018-06-22T23:31:08.358Z,11.97
2018-06-22T23:33:38.433Z,11.95
2018-06-22T23:36:08.210Z,11.92
2018-06-22T23:38:37.914Z,11.95
2018-06-22T23:41:07.627Z,11.98
2018-06-22T23:43:37.143Z,11.97
2018-06-22T23:46:06.999Z,12.06
2018-06-22T23:48:36.574Z,12.13
2018-06-22T23:51:06.541Z,12.09
2018-06-22T23:53:36.237Z,12.13
2018-06-22T23:56:05.925Z,12.11
2018-06-22T23:58:36.004Z,12.16
